Time;durP1;ratioP1;P1;durP2;ratioP2;P2;SDS_P1;SDS_P2;PMS_P1;PMS_P2;Temp;Humidity;BMP_temperature;BMP_pressure;BME280_temperature;BME280_humidity;BME280_pressure;Samples;Min_cycle;Max_cycle;Signal;HPM_P1;HPM_P2
2022/11/19 00:02:16;;;;;;;;;;;;;;;9.11;77.46;97418.63;7389479;19;19943;-77
2022/11/19 00:04:43;;;;;;;;;;;;;;;9.08;77.49;97409.25;7386426;19;19925;-76
2022/11/19 00:07:10;;;;;;;;;;;;;;;8.93;77.74;97413.59;7387908;19;20278;-75
2022/11/19 00:09:36;;;;;;;;;;;;;;;9.00;77.87;97411.91;7386236;19;19914;-74
2022/11/19 00:14:48;;;;;;;;;;;;;;;9.01;78.07;97408.31;7386081;19;20327;-76
2022/11/19 00:17:15;;;;;;;;;;;;;;;8.96;77.86;97402.72;7383850;19;20671;-75
2022/11/19 00:19:41;;;;;;;;;;;;;;;8.98;78.08;97408.66;7384484;19;20265;-76
2022/11/19 00:22:08;;;;;;;;;;;;;;;8.99;78.22;97408.47;7385102;19;19943;-75
2022/11/19 00:24:34;;;;;;;;;;;;;;;8.97;78.21;97413.06;7383689;19;20450;-75
2022/11/19 00:27:01;;;;;;;;;;;;;;;9.02;78.18;97409.94;7386157;19;19949;-75
2022/11/19 00:29:28;;;;;;;;;;;;;;;8.97;78.38;97401.69;7381944;19;19944;-75
2022/11/19 00:31:54;;;;;;;;;;;;;;;9.12;78.03;97405.28;7382867;19;19914;-75
2022/11/19 00:34:21;;;;;;;;;;;;;;;9.07;77.99;97402.34;7380573;19;19932;-75
2022/11/19 00:36:49;;;;;;;;;;;;;;;9.09;77.91;97400.34;7386568;19;20015;-75
2022/11/19 00:39:16;;;;;;;;;;;;;;;9.17;77.62;97412.69;7382617;19;19918;-75
2022/11/19 00:41:43;;;;;;;;;;;;;;;9.17;77.66;97402.97;7384703;19;20287;-75
2022/11/19 00:44:09;;;;;;;;;;;;;;;9.20;77.79;97399.97;7384475;19;19930;-76
2022/11/19 00:46:36;;;;;;;;;;;;;;;9.26;77.21;97401.09;7385727;19;19914;-76
2022/11/19 00:49:03;;;;;;;;;;;;;;;9.19;77.54;97397.53;7376206;19;19926;-76
2022/11/19 00:51:30;;;;;;;;;;;;;;;9.08;77.66;97396.06;7381570;19;19944;-75
2022/11/19 00:53:56;;;;;;;;;;;;;;;9.11;77.54;97395.75;7381363;19;19918;-76
2022/11/19 00:56:23;;;;;;;;;;;;;;;9.12;77.77;97388.63;7386101;19;20551;-76
2022/11/19 00:58:50;;;;;;;;;;;;;;;9.14;77.96;97397.22;7382855;19;20377;-76
2022/11/19 01:01:18;;;;;;;;;;;;;;;9.12;77.72;97394.72;7384068;19;19933;-76
2022/11/19 01:03:45;;;;;;;;;;;;;;;9.08;77.92;97398.69;7383040;19;19943;-76
2022/11/19 01:06:11;;;;;;;;;;;;;;;9.09;78.21;97399.53;7379305;19;19955;-76
2022/11/19 01:08:44;;;;;;;;;;;;;;;9.15;78.13;97399.66;7380993;19;19921;-75
2022/11/19 01:11:15;;;;;;;;;;;;;;;9.27;77.74;97400.13;7382034;19;19926;-75
2022/11/19 01:13:42;;;;;;;;;;;;;;;9.22;77.86;97394.53;7381452;19;20403;-75
2022/11/19 01:16:12;;;;;;;;;;;;;;;9.14;77.83;97403.31;7382463;19;19911;-76
2022/11/19 01:18:39;;;;;;;;;;;;;;;9.21;77.60;97401.63;7382170;19;20342;-75
2022/11/19 01:21:07;;;;;;;;;;;;;;;9.06;77.88;97398.06;7381162;19;19950;-75
2022/11/19 01:23:34;;;;;;;;;;;;;;;9.06;77.59;97400.69;7379477;19;20452;-75
2022/11/19 01:26:01;;;;;;;;;;;;;;;9.01;77.65;97397.75;7382472;19;19956;-75
2022/11/19 01:28:28;;;;;;;;;;;;;;;8.96;77.79;97407.97;7383064;19;19915;-75
2022/11/19 01:30:54;;;;;;;;;;;;;;;8.88;78.05;97398.28;7384074;19;19918;-76
2022/11/19 01:33:21;;;;;;;;;;;;;;;8.95;77.80;97403.69;7381937;19;19959;-75
2022/11/19 01:35:55;;;;;;;;;;;;;;;9.01;77.74;97410.94;7382900;19;19911;-75
2022/11/19 01:38:21;;;;;;;;;;;;;;;8.98;77.77;97406.00;7378472;19;20317;-75
2022/11/19 01:40:48;;;;;;;;;;;;;;;9.00;77.65;97404.84;7380437;19;20529;-75
2022/11/19 01:43:14;;;;;;;;;;;;;;;8.86;78.27;97399.44;7383439;19;19915;-75
2022/11/19 01:45:47;;;;;;;;;;;;;;;8.99;77.78;97405.00;7384452;19;19930;-76
2022/11/19 01:48:18;;;;;;;;;;;;;;;9.02;77.90;97409.94;7383097;19;19946;-75
2022/11/19 01:50:49;;;;;;;;;;;;;;;9.00;78.15;97406.63;7389351;19;19923;-76
2022/11/19 01:53:15;;;;;;;;;;;;;;;8.92;78.53;97398.75;7388406;19;19918;-76
2022/11/19 01:55:42;;;;;;;;;;;;;;;9.08;78.08;97403.16;7383275;19;19944;-75
2022/11/19 01:58:09;;;;;;;;;;;;;;;8.98;78.08;97404.19;7385188;19;19953;-75
2022/11/19 02:00:36;;;;;;;;;;;;;;;8.95;77.74;97404.53;7389306;19;19944;-76
2022/11/19 02:03:03;;;;;;;;;;;;;;;8.95;78.11;97408.97;7391974;19;20289;-75
2022/11/19 02:05:29;;;;;;;;;;;;;;;9.04;78.05;97402.69;7389569;19;19986;-75
2022/11/19 02:07:57;;;;;;;;;;;;;;;8.85;78.83;97410.97;7388459;19;19943;-76
2022/11/19 02:10:26;;;;;;;;;;;;;;;9.01;78.56;97418.84;7389017;19;19930;-75
2022/11/19 02:13:01;;;;;;;;;;;;;;;9.12;78.31;97409.75;7384173;19;19922;-76
2022/11/19 02:15:43;;;;;;;;;;;;;;;9.06;77.82;97416.53;7381892;19;19922;-76
2022/11/19 02:18:16;;;;;;;;;;;;;;;9.08;77.26;97411.88;7390469;19;19922;-75
2022/11/19 02:20:44;;;;;;;;;;;;;;;8.98;77.67;97425.28;7390725;19;19948;-76
2022/11/19 02:23:35;;;;;;;;;;;;;;;9.07;77.38;97406.78;7390606;19;19941;-76
2022/11/19 02:26:25;;;;;;;;;;;;;;;8.93;78.01;97410.97;7389065;19;20689;-75
2022/11/19 02:28:53;;;;;;;;;;;;;;;9.01;77.50;97416.22;7385556;19;19919;-76
2022/11/19 02:31:19;;;;;;;;;;;;;;;8.95;77.39;97407.16;7386936;19;19919;-76
2022/11/19 02:33:54;;;;;;;;;;;;;;;8.91;77.80;97413.75;7387379;19;19919;-76
2022/11/19 02:36:27;;;;;;;;;;;;;;;9.07;77.25;97414.72;7388440;19;20332;-76
2022/11/19 02:38:55;;;;;;;;;;;;;;;9.04;76.84;97423.78;7386069;19;19923;-76
2022/11/19 02:41:40;;;;;;;;;;;;;;;8.97;77.31;97417.53;7388148;19;19954;-76
2022/11/19 02:47:13;;;;;;;;;;;;;;;8.82;78.23;97424.47;7384809;19;19932;-76
2022/11/19 02:49:41;;;;;;;;;;;;;;;8.71;78.08;97420.38;7385573;19;20277;-76
2022/11/19 02:52:08;;;;;;;;;;;;;;;8.86;78.53;97426.63;7389157;19;19952;-76
2022/11/19 02:54:34;;;;;;;;;;;;;;;8.76;78.72;97424.16;7383110;19;20540;-77
2022/11/19 02:57:02;;;;;;;;;;;;;;;8.85;78.88;97425.00;7389186;19;20386;-76
2022/11/19 03:05:06;;;;;;;;;;;;;;;8.96;78.73;97439.63;7380857;19;19915;-76
2022/11/19 03:07:33;;;;;;;;;;;;;;;8.93;78.57;97440.78;7387881;19;19937;-76
2022/11/19 03:10:01;;;;;;;;;;;;;;;8.84;78.36;97433.06;7389043;19;19934;-76
2022/11/19 03:12:38;;;;;;;;;;;;;;;9.00;78.60;97435.66;7391323;19;19915;-77
2022/11/19 03:17:53;;;;;;;;;;;;;;;9.04;78.26;97438.81;7386496;19;19918;-77
2022/11/19 03:20:22;;;;;;;;;;;;;;;9.00;78.33;97433.00;7385304;19;19943;-77
2022/11/19 03:22:53;;;;;;;;;;;;;;;8.88;78.54;97434.38;7387184;19;19918;-76
2022/11/19 03:25:33;;;;;;;;;;;;;;;9.07;78.32;97439.28;7385653;19;19926;-76
2022/11/19 03:28:01;;;;;;;;;;;;;;;9.16;78.18;97438.28;7389613;19;19921;-77
2022/11/19 03:30:28;;;;;;;;;;;;;;;9.22;77.30;97429.66;7387714;19;19911;-77
2022/11/19 03:32:58;;;;;;;;;;;;;;;9.22;77.02;97431.50;7381383;19;19956;-76
2022/11/19 03:35:26;;;;;;;;;;;;;;;9.21;76.74;97441.19;7382779;19;20596;-76
2022/11/19 03:37:53;;;;;;;;;;;;;;;9.18;76.70;97438.91;7384310;19;19922;-76
2022/11/19 03:40:20;;;;;;;;;;;;;;;9.15;77.08;97441.88;7386586;19;19922;-76
2022/11/19 03:42:47;;;;;;;;;;;;;;;9.18;77.01;97432.81;7384723;19;19923;-77
2022/11/19 03:45:17;;;;;;;;;;;;;;;9.20;77.06;97439.56;7385924;19;19922;-76
2022/11/19 03:47:44;;;;;;;;;;;;;;;9.19;77.10;97442.38;7386731;19;19926;-77
2022/11/19 03:50:16;;;;;;;;;;;;;;;9.21;76.87;97445.66;7385471;19;19948;-77
2022/11/19 03:52:43;;;;;;;;;;;;;;;9.21;76.79;97448.28;7382558;19;19926;-76
2022/11/19 03:55:09;;;;;;;;;;;;;;;9.18;77.04;97449.47;7383354;19;19938;-76
2022/11/19 03:57:36;;;;;;;;;;;;;;;9.21;77.01;97457.03;7383578;19;19922;-76
2022/11/19 04:00:03;;;;;;;;;;;;;;;9.29;76.61;97458.81;7386751;19;19934;-76
2022/11/19 04:02:38;;;;;;;;;;;;;;;9.25;77.02;97462.00;7385420;19;19911;-75
2022/11/19 04:05:05;;;;;;;;;;;;;;;9.21;77.17;97469.41;7383070;19;19929;-75
2022/11/19 04:07:32;;;;;;;;;;;;;;;9.23;76.89;97462.97;7385343;19;19939;-75
2022/11/19 04:09:59;;;;;;;;;;;;;;;9.16;77.19;97459.38;7381090;19;20297;-76
2022/11/19 04:12:25;;;;;;;;;;;;;;;9.21;77.01;97457.03;7385389;19;19927;-74
2022/11/19 04:14:52;;;;;;;;;;;;;;;9.03;77.66;97464.38;7384273;19;20034;-75
2022/11/19 04:17:20;;;;;;;;;;;;;;;9.08;77.96;97463.84;7388455;19;20285;-75
2022/11/19 04:19:46;;;;;;;;;;;;;;;9.14;77.66;97453.44;7384727;19;19919;-75
2022/11/19 04:22:13;;;;;;;;;;;;;;;9.01;77.70;97458.44;7389180;19;20291;-75
2022/11/19 04:24:40;;;;;;;;;;;;;;;9.13;77.67;97454.41;7385817;19;19923;-75
2022/11/19 04:27:06;;;;;;;;;;;;;;;9.20;77.65;97463.31;7386512;19;19919;-76
2022/11/19 04:29:33;;;;;;;;;;;;;;;9.23;77.24;97457.69;7382904;19;20469;-77
2022/11/19 04:31:59;;;;;;;;;;;;;;;9.21;77.47;97450.94;7389479;19;19914;-75
2022/11/19 04:34:26;;;;;;;;;;;;;;;9.26;77.52;97458.34;7382658;19;19911;-75
2022/11/19 04:36:52;;;;;;;;;;;;;;;9.20;77.68;97457.22;7387014;19;19931;-76
2022/11/19 04:39:19;;;;;;;;;;;;;;;9.14;77.56;97455.25;7386497;19;19915;-75
2022/11/19 04:41:46;;;;;;;;;;;;;;;9.16;77.92;97459.38;7387248;19;19918;-76
2022/11/19 04:44:13;;;;;;;;;;;;;;;9.25;77.47;97457.53;7382748;19;19955;-77
2022/11/19 04:46:39;;;;;;;;;;;;;;;9.31;77.36;97456.03;7391887;19;20518;-75
2022/11/19 04:49:06;;;;;;;;;;;;;;;9.18;77.20;97467.94;7387809;19;19936;-77
2022/11/19 04:51:32;;;;;;;;;;;;;;;9.27;77.19;97460.00;7387827;19;19923;-75
2022/11/19 04:53:59;;;;;;;;;;;;;;;9.27;76.96;97466.13;7385437;19;19930;-77
2022/11/19 04:56:25;;;;;;;;;;;;;;;9.33;76.79;97461.97;7386570;19;19933;-75
2022/11/19 04:58:52;;;;;;;;;;;;;;;9.32;76.72;97458.50;7383960;19;19941;-75
2022/11/19 05:01:19;;;;;;;;;;;;;;;9.33;76.70;97472.53;7385267;19;19994;-75
2022/11/19 05:03:46;;;;;;;;;;;;;;;9.22;77.19;97463.16;7386875;19;19923;-76
2022/11/19 05:06:14;;;;;;;;;;;;;;;9.19;77.50;97476.69;7386604;19;19922;-76
2022/11/19 05:08:41;;;;;;;;;;;;;;;9.26;77.08;97468.91;7386435;19;19994;-75
2022/11/19 05:11:07;;;;;;;;;;;;;;;9.30;77.05;97470.22;7389400;19;19944;-75
2022/11/19 05:13:34;;;;;;;;;;;;;;;9.23;77.17;97465.59;7387488;19;19944;-75
2022/11/19 05:16:01;;;;;;;;;;;;;;;9.07;77.65;97465.66;7381126;19;19923;-76
2022/11/19 05:18:27;;;;;;;;;;;;;;;9.01;78.05;97461.88;7383493;19;19915;-76
2022/11/19 05:20:54;;;;;;;;;;;;;;;8.92;78.51;97462.06;7388026;19;19919;-76
2022/11/19 05:23:21;;;;;;;;;;;;;;;9.09;78.42;97462.88;7391365;19;19926;-76
2022/11/19 05:25:47;;;;;;;;;;;;;;;9.04;78.60;97459.91;7393946;19;19918;-74
2022/11/19 05:28:15;;;;;;;;;;;;;;;9.04;78.46;97460.72;7393346;19;19929;-76
2022/11/19 05:30:44;;;;;;;;;;;;;;;9.14;78.16;97453.44;7394469;19;19927;-75
2022/11/19 05:33:11;;;;;;;;;;;;;;;9.27;77.93;97457.34;7391671;19;20456;-75
2022/11/19 05:35:37;;;;;;;;;;;;;;;9.29;77.39;97461.47;7389723;19;20339;-75
2022/11/19 05:38:05;;;;;;;;;;;;;;;9.34;77.35;97460.97;7392019;19;19917;-75
2022/11/19 05:40:31;;;;;;;;;;;;;;;9.18;77.82;97462.66;7392198;19;19931;-76
2022/11/19 05:43:02;;;;;;;;;;;;;;;9.05;78.15;97462.34;7396887;19;20346;-75
2022/11/19 05:45:29;;;;;;;;;;;;;;;9.05;78.45;97464.19;7393667;19;19939;-75
2022/11/19 05:47:55;;;;;;;;;;;;;;;9.13;78.43;97464.97;7390322;19;19923;-75
2022/11/19 05:50:22;;;;;;;;;;;;;;;9.18;78.44;97464.47;7388658;19;19964;-75
2022/11/19 05:52:48;;;;;;;;;;;;;;;9.18;78.43;97467.94;7396305;19;19922;-75
2022/11/19 05:55:15;;;;;;;;;;;;;;;9.23;78.42;97470.88;7386375;19;19927;-73
2022/11/19 05:57:42;;;;;;;;;;;;;;;9.31;78.14;97475.31;7392314;19;19919;-75
2022/11/19 06:00:09;;;;;;;;;;;;;;;9.20;77.94;97479.16;7388548;19;19914;-75
2022/11/19 06:02:38;;;;;;;;;;;;;;;9.25;78.22;97478.66;7389580;19;19922;-75
2022/11/19 06:05:05;;;;;;;;;;;;;;;9.26;77.74;97479.47;7384466;19;19955;-75
2022/11/19 06:07:32;;;;;;;;;;;;;;;9.22;77.42;97485.09;7386446;19;19922;-74
2022/11/19 06:09:58;;;;;;;;;;;;;;;9.18;77.48;97483.75;7388032;19;19998;-75
2022/11/19 06:12:25;;;;;;;;;;;;;;;9.30;76.99;97480.78;7390305;19;19915;-75
2022/11/19 06:14:52;;;;;;;;;;;;;;;9.26;77.21;97474.19;7383300;19;21143;-74
2022/11/19 06:17:18;;;;;;;;;;;;;;;9.30;77.00;97486.06;7391306;19;20384;-75
2022/11/19 06:19:46;;;;;;;;;;;;;;;9.27;77.00;97481.94;7388214;19;19911;-76
2022/11/19 06:22:12;;;;;;;;;;;;;;;9.23;77.26;97489.34;7389387;19;19966;-74
2022/11/19 06:24:39;;;;;;;;;;;;;;;9.15;77.26;97489.38;7383887;19;19915;-75
2022/11/19 06:27:05;;;;;;;;;;;;;;;9.10;77.50;97481.16;7391687;19;19919;-76
2022/11/19 06:29:32;;;;;;;;;;;;;;;9.09;77.52;97487.44;7387271;19;19944;-74
2022/11/19 06:31:59;;;;;;;;;;;;;;;9.08;77.21;97483.13;7390525;19;20244;-75
2022/11/19 06:34:26;;;;;;;;;;;;;;;8.87;77.75;97501.28;7389658;19;19911;-75
2022/11/19 06:37:19;;;;;;;;;;;;;;;8.99;77.53;97502.63;7394377;19;20002;-74
2022/11/19 06:39:48;;;;;;;;;;;;;;;8.83;77.61;97500.81;7389912;19;19914;-75
2022/11/19 06:42:37;;;;;;;;;;;;;;;8.90;78.06;97506.22;7389253;19;19923;-76
2022/11/19 06:45:08;;;;;;;;;;;;;;;8.99;77.63;97510.53;7392395;19;19914;-75
2022/11/19 06:48:04;;;;;;;;;;;;;;;9.02;77.69;97511.00;7392834;19;19923;-75
2022/11/19 06:50:33;;;;;;;;;;;;;;;9.12;77.49;97513.47;7392872;19;20384;-75
2022/11/19 06:53:09;;;;;;;;;;;;;;;9.14;77.53;97519.41;7396381;19;19925;-75
2022/11/19 06:56:05;;;;;;;;;;;;;;;9.05;77.54;97522.22;7388908;19;19930;-75
2022/11/19 06:58:44;;;;;;;;;;;;;;;8.97;77.88;97513.31;7388493;19;19943;-75
2022/11/19 07:01:33;;;;;;;;;;;;;;;8.90;77.68;97524.69;7394276;19;19915;-75
2022/11/19 07:04:04;;;;;;;;;;;;;;;8.97;77.52;97520.41;7390045;19;20677;-75
2022/11/19 07:06:47;;;;;;;;;;;;;;;8.83;77.59;97519.28;7393494;19;20372;-74
2022/11/19 07:09:14;;;;;;;;;;;;;;;8.70;78.20;97525.03;7388661;19;19942;-75
2022/11/19 07:11:40;;;;;;;;;;;;;;;8.74;78.13;97530.81;7387344;19;19922;-76
2022/11/19 07:14:07;;;;;;;;;;;;;;;8.71;78.18;97539.03;7379017;19;20675;-74
2022/11/19 07:16:34;;;;;;;;;;;;;;;8.82;78.22;97530.84;7389403;19;19919;-74
2022/11/19 07:19:02;;;;;;;;;;;;;;;8.86;78.08;97536.59;7388284;19;20349;-75
2022/11/19 07:21:29;;;;;;;;;;;;;;;8.86;77.87;97541.84;7390540;19;19919;-74
2022/11/19 07:23:56;;;;;;;;;;;;;;;8.86;77.72;97534.75;7388205;19;19921;-75
2022/11/19 07:26:22;;;;;;;;;;;;;;;8.75;78.16;97541.19;7388945;19;19926;-75
2022/11/19 07:28:49;;;;;;;;;;;;;;;8.78;78.26;97540.88;7383744;19;20367;-75
2022/11/19 07:31:16;;;;;;;;;;;;;;;8.88;78.03;97547.81;7384437;19;19941;-75
2022/11/19 07:33:42;;;;;;;;;;;;;;;8.78;78.53;97548.78;7388436;19;19914;-76
2022/11/19 07:36:12;;;;;;;;;;;;;;;8.79;78.13;97547.81;7391749;19;19919;-74
2022/11/19 07:38:44;;;;;;;;;;;;;;;8.94;77.82;97555.03;7390490;19;19922;-75
2022/11/19 07:44:23;;;;;;;;;;;;;;;8.97;77.49;97550.25;7390746;19;21386;-75
2022/11/19 07:46:59;;;;;;;;;;;;;;;9.02;77.49;97557.69;7384837;19;19914;-75
2022/11/19 07:49:48;;;;;;;;;;;;;;;8.99;77.54;97558.00;7388771;19;19931;-74
2022/11/19 07:52:23;;;;;;;;;;;;;;;8.91;78.13;97560.66;7390698;19;20404;-74
2022/11/19 07:55:06;;;;;;;;;;;;;;;8.88;78.30;97556.53;7382203;19;19915;-75
2022/11/19 07:57:33;;;;;;;;;;;;;;;9.00;78.77;97557.88;7390970;19;19939;-75
2022/11/19 08:00:00;;;;;;;;;;;;;;;9.03;78.84;97556.72;7388201;19;20454;-74
2022/11/19 08:02:26;;;;;;;;;;;;;;;8.95;78.88;97559.31;7385503;19;19993;-76
2022/11/19 08:04:53;;;;;;;;;;;;;;;9.00;78.87;97559.66;7386556;19;19926;-74
2022/11/19 08:07:20;;;;;;;;;;;;;;;9.19;78.55;97566.41;7389173;19;19931;-75
2022/11/19 08:09:47;;;;;;;;;;;;;;;9.31;78.57;97566.88;7388445;19;19926;-75
2022/11/19 08:12:15;;;;;;;;;;;;;;;9.45;78.45;97559.13;7385903;19;19930;-74
2022/11/19 08:14:42;;;;;;;;;;;;;;;9.38;78.72;97563.41;7382958;19;19925;-74
2022/11/19 08:19:54;;;;;;;;;;;;;;;9.35;nan;97562.94;7378864;19;19914;-74
2022/11/19 08:22:20;;;;;;;;;;;;;;;9.41;77.97;97559.63;7381417;19;19923;-74
2022/11/19 08:24:47;;;;;;;;;;;;;;;9.43;77.96;97563.72;7382285;19;19965;-74
2022/11/19 08:27:14;;;;;;;;;;;;;;;9.47;78.05;97558.94;7386857;19;19962;-74
2022/11/19 08:29:41;;;;;;;;;;;;;;;9.47;78.09;97560.75;7381895;19;20347;-75
2022/11/19 08:32:08;;;;;;;;;;;;;;;9.52;77.91;97564.53;7386432;19;19948;-74
2022/11/19 08:34:34;;;;;;;;;;;;;;;9.55;78.15;97564.19;7379068;19;20331;-75
2022/11/19 08:37:01;;;;;;;;;;;;;;;9.47;77.69;97574.78;7381875;19;19911;-74
2022/11/19 08:39:28;;;;;;;;;;;;;;;9.48;77.76;97579.06;7381456;19;19914;-75
2022/11/19 08:44:40;;;;;;;;;;;;;;;9.43;77.86;97584.03;7375248;19;20291;-75
2022/11/19 08:47:06;;;;;;;;;;;;;;;9.43;77.96;97584.84;7380041;19;19967;-75
2022/11/19 08:49:33;;;;;;;;;;;;;;;9.35;78.21;97584.06;7380352;19;19923;-74
2022/11/19 08:51:59;;;;;;;;;;;;;;;9.27;78.29;97594.59;7383972;19;20335;-75
2022/11/19 08:54:26;;;;;;;;;;;;;;;9.26;77.87;97591.13;7377321;19;19918;-74
2022/11/19 08:56:53;;;;;;;;;;;;;;;9.28;78.08;97588.34;7381663;19;19940;-74
2022/11/19 08:59:20;;;;;;;;;;;;;;;9.45;77.60;97592.59;7384607;19;19965;-75
2022/11/19 09:01:48;;;;;;;;;;;;;;;9.41;77.45;97594.75;7392111;19;19919;-75
2022/11/19 09:04:15;;;;;;;;;;;;;;;9.64;77.82;97589.59;7390850;19;20031;-75
2022/11/19 09:06:42;;;;;;;;;;;;;;;9.83;77.79;97591.03;7394868;19;19923;-75
2022/11/19 09:09:08;;;;;;;;;;;;;;;9.82;77.28;97596.47;7387488;19;20281;-75
2022/11/19 09:11:35;;;;;;;;;;;;;;;9.99;76.91;97595.44;7386599;19;20560;-75
2022/11/19 09:14:08;;;;;;;;;;;;;;;10.09;76.60;97603.97;7387450;19;20429;-75
2022/11/19 09:16:34;;;;;;;;;;;;;;;10.13;76.56;97604.44;7390337;19;20312;-75
2022/11/19 09:19:01;;;;;;;;;;;;;;;10.24;76.36;97606.72;7384898;19;19923;-75
2022/11/19 09:21:28;;;;;;;;;;;;;;;10.16;76.30;97612.03;7386522;19;20648;-75
2022/11/19 09:23:54;;;;;;;;;;;;;;;10.28;76.20;97623.91;7390883;19;19915;-76
2022/11/19 09:26:21;;;;;;;;;;;;;;;10.39;75.92;97613.94;7387340;19;20128;-75
2022/11/19 09:28:48;;;;;;;;;;;;;;;10.34;75.84;97619.75;7382330;19;20304;-75
2022/11/19 09:31:16;;;;;;;;;;;;;;;10.35;75.45;97613.50;7390931;19;19931;-74
2022/11/19 09:33:44;;;;;;;;;;;;;;;10.34;75.08;97627.69;7389986;19;19948;-75
2022/11/19 09:36:11;;;;;;;;;;;;;;;10.28;74.96;97628.38;7388022;19;19923;-75
2022/11/19 09:38:39;;;;;;;;;;;;;;;10.46;75.01;97628.13;7385497;19;19956;-76
2022/11/19 09:41:32;;;;;;;;;;;;;;;10.42;75.00;97625.00;7389702;19;19919;-75
2022/11/19 09:44:25;;;;;;;;;;;;;;;10.32;75.08;97630.50;7383473;19;19944;-75
2022/11/19 09:46:54;;;;;;;;;;;;;;;10.43;75.23;97633.78;7384865;19;19947;-75
2022/11/19 09:49:23;;;;;;;;;;;;;;;10.47;75.08;97629.78;7386603;19;20247;-74
2022/11/19 09:51:52;;;;;;;;;;;;;;;10.48;74.99;97629.63;7387655;19;19927;-76
2022/11/19 09:54:19;;;;;;;;;;;;;;;10.49;74.79;97627.78;7384839;19;19922;-75
2022/11/19 09:56:46;;;;;;;;;;;;;;;10.27;75.01;97627.56;7387871;19;20301;-75
2022/11/19 09:59:32;;;;;;;;;;;;;;;10.17;75.30;97631.38;7383834;19;19922;-75
2022/11/19 10:01:59;;;;;;;;;;;;;;;10.29;75.67;97627.38;7381970;19;20279;-75
2022/11/19 10:04:27;;;;;;;;;;;;;;;10.43;75.20;97621.38;7385357;19;20258;-77
2022/11/19 10:07:05;;;;;;;;;;;;;;;10.45;75.55;97621.19;7386045;19;20372;-77
2022/11/19 10:09:32;;;;;;;;;;;;;;;10.51;74.96;97626.63;7383648;19;19973;-77
2022/11/19 10:12:18;;;;;;;;;;;;;;;10.54;75.17;97628.09;7389677;19;19922;-73
2022/11/19 10:15:10;;;;;;;;;;;;;;;10.51;75.40;97626.63;7382989;19;19929;-77
2022/11/19 10:17:55;;;;;;;;;;;;;;;10.17;75.87;97620.81;7378973;19;19931;-74
2022/11/19 10:20:31;;;;;;;;;;;;;;;10.32;75.02;97622.59;7384217;19;20666;-76
2022/11/19 10:23:02;;;;;;;;;;;;;;;10.28;75.11;97618.63;7387931;19;19942;-76
2022/11/19 10:25:41;;;;;;;;;;;;;;;10.10;75.46;97618.81;7382832;19;19919;-78
2022/11/19 10:28:12;;;;;;;;;;;;;;;10.37;75.47;97613.28;7384286;19;19922;-77
2022/11/19 10:30:39;;;;;;;;;;;;;;;10.23;76.11;97613.00;7388632;19;20311;-77
2022/11/19 10:33:18;;;;;;;;;;;;;;;10.21;75.65;97608.88;7385126;19;19931;-76
2022/11/19 10:35:53;;;;;;;;;;;;;;;10.24;75.80;97613.81;7382553;19;19934;-76
2022/11/19 10:38:27;;;;;;;;;;;;;;;10.21;75.46;97608.88;7388010;19;19927;-76
2022/11/19 10:41:03;;;;;;;;;;;;;;;10.26;75.52;97607.34;7389969;19;19919;-76
2022/11/19 10:43:37;;;;;;;;;;;;;;;10.55;75.05;97601.44;7388734;19;20281;-76
2022/11/19 10:46:05;;;;;;;;;;;;;;;10.49;75.62;97609.28;7383623;19;19948;-76
2022/11/19 10:48:36;;;;;;;;;;;;;;;10.45;75.45;97605.31;7385135;19;19922;-77
2022/11/19 10:51:08;;;;;;;;;;;;;;;10.64;75.07;97612.00;7382048;19;19926;-77
2022/11/19 10:53:35;;;;;;;;;;;;;;;10.38;75.70;97604.38;7388203;19;20344;-77
2022/11/19 10:56:03;;;;;;;;;;;;;;;10.37;75.93;97595.59;7383328;19;19927;-77
2022/11/19 10:58:38;;;;;;;;;;;;;;;10.35;75.13;97600.25;7385372;19;19927;-77
2022/11/19 11:01:13;;;;;;;;;;;;;;;10.43;75.31;97602.03;7390696;19;19923;-76
2022/11/19 11:04:13;;;;;;;;;;;;;;;10.16;74.99;97590.06;7390016;19;19922;-76
2022/11/19 11:07:02;;;;;;;;;;;;;;;10.04;75.16;97601.03;7383901;19;19919;-77
2022/11/19 11:09:38;;;;;;;;;;;;;;;10.04;75.41;97600.22;7384223;19;19923;-76
2022/11/19 11:14:58;;;;;;;;;;;;;;;10.22;75.32;97598.16;7384962;19;19922;-76
2022/11/19 11:17:29;;;;;;;;;;;;;;;10.06;75.29;97604.31;7389538;19;20454;-77
2022/11/19 11:20:02;;;;;;;;;;;;;;;9.93;75.09;97603.22;7386251;19;19919;-76
2022/11/19 11:22:29;;;;;;;;;;;;;;;9.86;75.05;97601.25;7383616;19;19918;-77
2022/11/19 11:24:56;;;;;;;;;;;;;;;9.93;74.52;97604.03;7382833;19;19983;-77
2022/11/19 11:27:33;;;;;;;;;;;;;;;9.75;75.04;97600.81;7387012;19;19952;-74
2022/11/19 11:30:18;;;;;;;;;;;;;;;9.91;74.40;97600.75;7387942;19;20351;-76
2022/11/19 11:32:46;;;;;;;;;;;;;;;9.82;74.69;97596.47;7390171;19;19922;-73
2022/11/19 11:35:32;;;;;;;;;;;;;;;9.87;75.13;97594.97;7382850;19;20289;-77
2022/11/19 11:37:59;;;;;;;;;;;;;;;9.97;74.76;97605.34;7390989;19;20281;-76
2022/11/19 11:40:26;;;;;;;;;;;;;;;9.89;74.44;97600.09;7380257;19;19954;-74
2022/11/19 11:42:52;;;;;;;;;;;;;;;10.01;75.27;97601.38;7383558;19;19919;-76
2022/11/19 11:45:20;;;;;;;;;;;;;;;10.00;74.66;97599.69;7380381;19;19927;-76
2022/11/19 11:47:47;;;;;;;;;;;;;;;9.95;74.37;97591.47;7384380;19;19940;-76
2022/11/19 11:50:14;;;;;;;;;;;;;;;9.87;74.57;97599.41;7379820;19;19919;-77
2022/11/19 11:52:43;;;;;;;;;;;;;;;10.14;74.49;97594.69;7384268;19;19919;-77
2022/11/19 11:55:13;;;;;;;;;;;;;;;10.14;74.12;97594.69;7377954;19;19927;-77
2022/11/19 11:57:53;;;;;;;;;;;;;;;10.21;74.44;97585.91;7383138;19;20466;-78
2022/11/19 12:00:23;;;;;;;;;;;;;;;10.23;74.19;97588.38;7385053;19;19914;-76
2022/11/19 12:02:59;;;;;;;;;;;;;;;10.18;74.71;97596.00;7385963;19;19957;-77
2022/11/19 12:05:27;;;;;;;;;;;;;;;10.19;74.73;97602.94;7380280;19;19922;-78
2022/11/19 12:07:57;;;;;;;;;;;;;;;10.09;74.82;97593.41;7385078;19;19951;-77
2022/11/19 12:10:32;;;;;;;;;;;;;;;10.10;75.37;97600.31;7381071;19;19915;-75
2022/11/19 12:13:01;;;;;;;;;;;;;;;10.01;75.35;97598.72;7384352;19;19943;-76
2022/11/19 12:15:31;;;;;;;;;;;;;;;10.05;75.19;97605.31;7373417;19;20302;-74
2022/11/19 12:18:16;;;;;;;;;;;;;;;9.90;75.36;97604.38;7385691;19;19930;-78
2022/11/19 12:20:42;;;;;;;;;;;;;;;9.58;75.92;97610.56;7384702;19;19922;-77
2022/11/19 12:23:24;;;;;;;;;;;;;;;9.77;75.95;97604.06;7386457;19;20254;-77
2022/11/19 12:26:11;;;;;;;;;;;;;;;9.88;76.30;97612.47;7382348;19;20550;-77
2022/11/19 12:28:47;;;;;;;;;;;;;;;10.03;76.47;97598.53;7385943;19;20336;-76
2022/11/19 12:31:19;;;;;;;;;;;;;;;10.16;76.42;97598.81;7382291;19;19919;-77
2022/11/19 12:33:46;;;;;;;;;;;;;;;10.19;76.45;97600.28;7384510;19;19921;-76
2022/11/19 12:36:18;;;;;;;;;;;;;;;9.98;76.50;97595.59;7384217;19;19914;-76
2022/11/19 12:38:44;;;;;;;;;;;;;;;9.94;76.69;97603.03;7382492;19;19929;-78
2022/11/19 12:41:30;;;;;;;;;;;;;;;9.86;76.72;97603.06;7387555;19;19918;-77
2022/11/19 12:43:57;;;;;;;;;;;;;;;9.79;76.81;97600.25;7381498;19;20616;-77
2022/11/19 12:46:29;;;;;;;;;;;;;;;9.85;76.25;97607.53;7386594;19;19929;-77
2022/11/19 12:49:16;;;;;;;;;;;;;;;9.68;76.14;97598.81;7382939;19;19919;-77
2022/11/19 12:51:51;;;;;;;;;;;;;;;9.95;76.30;97607.31;7386692;19;19911;-77
2022/11/19 12:54:19;;;;;;;;;;;;;;;10.15;75.84;97606.94;7384741;19;19914;-77
2022/11/19 12:56:55;;;;;;;;;;;;;;;9.81;76.35;97608.84;7381863;19;19934;-77
2022/11/19 12:59:37;;;;;;;;;;;;;;;9.63;76.59;97609.06;7377849;19;19907;-77
2022/11/19 13:02:06;;;;;;;;;;;;;;;9.66;76.57;97608.75;7384913;19;19935;-75
2022/11/19 13:04:35;;;;;;;;;;;;;;;9.72;76.61;97603.78;7373859;19;19907;-76
2022/11/19 13:07:03;;;;;;;;;;;;;;;9.76;76.45;97607.72;7377065;19;19933;-77
2022/11/19 13:09:43;;;;;;;;;;;;;;;9.75;76.37;97606.09;7380997;19;19980;-77
2022/11/19 13:12:11;;;;;;;;;;;;;;;9.55;76.55;97617.00;7378820;19;19922;-77
2022/11/19 13:14:45;;;;;;;;;;;;;;;9.74;76.39;97612.34;7375436;19;20338;-77
2022/11/19 13:17:23;;;;;;;;;;;;;;;9.77;76.48;97604.06;7381851;19;19926;-77
2022/11/19 13:19:57;;;;;;;;;;;;;;;9.60;76.80;97613.88;7380913;19;19919;-77
2022/11/19 13:22:32;;;;;;;;;;;;;;;9.77;76.49;97604.91;7377788;19;19921;-76
2022/11/19 13:25:00;;;;;;;;;;;;;;;9.76;76.61;97611.19;7380099;19;19982;-76
2022/11/19 13:27:27;;;;;;;;;;;;;;;9.64;76.63;97607.25;7381103;19;19938;-76
2022/11/19 13:29:53;;;;;;;;;;;;;;;9.63;77.16;97603.78;7378215;19;19986;-77
2022/11/19 13:32:39;;;;;;;;;;;;;;;9.72;77.04;97601.97;7381886;19;19950;-77
2022/11/19 13:35:25;;;;;;;;;;;;;;;9.77;76.64;97604.06;7376741;19;19919;-78
2022/11/19 13:37:56;;;;;;;;;;;;;;;9.75;76.58;97604.25;7370604;19;21529;-74